sensor_id;sensor_type;location;lat;lon;timestamp;P1;durP1;ratioP1;P2;durP2;ratioP2
11614;SDS011;5863;52.832;4.758;2022-07-29T00:00:37;2.90;;;1.50;;
11614;SDS011;5863;52.832;4.758;2022-07-29T00:03:04;3.40;;;1.40;;
11614;SDS011;5863;52.832;4.758;2022-07-29T00:05:31;2.38;;;1.40;;
11614;SDS011;5863;52.832;4.758;2022-07-29T00:07:57;2.17;;;1.52;;
11614;SDS011;5863;52.832;4.758;2022-07-29T00:10:24;1.92;;;1.30;;
11614;SDS011;5863;52.832;4.758;2022-07-29T00:12:52;1.95;;;1.33;;
11614;SDS011;5863;52.832;4.758;2022-07-29T00:15:19;1.38;;;1.27;;
11614;SDS011;5863;52.832;4.758;2022-07-29T00:17:46;2.17;;;1.60;;
11614;SDS011;5863;52.832;4.758;2022-07-29T00:20:12;3.58;;;1.80;;
11614;SDS011;5863;52.832;4.758;2022-07-29T00:22:39;2.20;;;1.50;;
11614;SDS011;5863;52.832;4.758;2022-07-29T00:25:06;4.55;;;1.60;;
11614;SDS011;5863;52.832;4.758;2022-07-29T00:27:33;2.60;;;1.60;;
11614;SDS011;5863;52.832;4.758;2022-07-29T00:30:02;2.60;;;1.50;;
11614;SDS011;5863;52.832;4.758;2022-07-29T00:32:29;2.05;;;1.52;;
11614;SDS011;5863;52.832;4.758;2022-07-29T00:34:56;2.58;;;1.70;;
11614;SDS011;5863;52.832;4.758;2022-07-29T00:37:41;1.83;;;1.40;;
11614;SDS011;5863;52.832;4.758;2022-07-29T00:40:08;4.30;;;1.60;;
11614;SDS011;5863;52.832;4.758;2022-07-29T00:42:41;2.08;;;1.50;;
11614;SDS011;5863;52.832;4.758;2022-07-29T00:45:10;3.40;;;1.42;;
11614;SDS011;5863;52.832;4.758;2022-07-29T00:47:37;1.98;;;1.13;;
11614;SDS011;5863;52.832;4.758;2022-07-29T00:50:04;1.60;;;1.30;;
11614;SDS011;5863;52.832;4.758;2022-07-29T00:52:33;2.63;;;1.48;;
11614;SDS011;5863;52.832;4.758;2022-07-29T00:55:02;3.67;;;1.48;;
11614;SDS011;5863;52.832;4.758;2022-07-29T00:57:30;1.83;;;1.48;;
11614;SDS011;5863;52.832;4.758;2022-07-29T00:59:57;2.75;;;1.58;;
11614;SDS011;5863;52.832;4.758;2022-07-29T01:02:25;2.22;;;1.50;;
11614;SDS011;5863;52.832;4.758;2022-07-29T01:04:52;1.73;;;1.40;;
11614;SDS011;5863;52.832;4.758;2022-07-29T01:07:21;2.40;;;1.60;;
11614;SDS011;5863;52.832;4.758;2022-07-29T01:09:49;2.55;;;1.77;;
11614;SDS011;5863;52.832;4.758;2022-07-29T01:12:17;2.47;;;1.38;;
11614;SDS011;5863;52.832;4.758;2022-07-29T01:14:48;2.53;;;1.67;;
11614;SDS011;5863;52.832;4.758;2022-07-29T01:17:21;2.80;;;1.70;;
11614;SDS011;5863;52.832;4.758;2022-07-29T01:19:56;2.15;;;1.45;;
11614;SDS011;5863;52.832;4.758;2022-07-29T01:22:31;5.88;;;1.50;;
11614;SDS011;5863;52.832;4.758;2022-07-29T01:25:19;1.60;;;1.50;;
11614;SDS011;5863;52.832;4.758;2022-07-29T01:28:01;2.00;;;1.35;;
11614;SDS011;5863;52.832;4.758;2022-07-29T01:30:44;2.17;;;1.42;;
11614;SDS011;5863;52.832;4.758;2022-07-29T01:33:13;2.60;;;1.85;;
11614;SDS011;5863;52.832;4.758;2022-07-29T01:35:57;7.18;;;1.77;;
11614;SDS011;5863;52.832;4.758;2022-07-29T01:38:26;2.97;;;1.65;;
11614;SDS011;5863;52.832;4.758;2022-07-29T01:40:55;1.65;;;1.52;;
11614;SDS011;5863;52.832;4.758;2022-07-29T01:43:39;3.70;;;1.67;;
11614;SDS011;5863;52.832;4.758;2022-07-29T01:46:17;5.70;;;1.98;;
11614;SDS011;5863;52.832;4.758;2022-07-29T01:48:55;3.30;;;1.70;;
11614;SDS011;5863;52.832;4.758;2022-07-29T01:51:28;1.80;;;1.70;;
11614;SDS011;5863;52.832;4.758;2022-07-29T01:53:59;6.05;;;2.05;;
11614;SDS011;5863;52.832;4.758;2022-07-29T01:56:32;2.00;;;1.50;;
11614;SDS011;5863;52.832;4.758;2022-07-29T01:59:01;4.22;;;1.90;;
11614;SDS011;5863;52.832;4.758;2022-07-29T02:01:31;3.95;;;1.98;;
11614;SDS011;5863;52.832;4.758;2022-07-29T02:04:02;1.90;;;1.70;;
11614;SDS011;5863;52.832;4.758;2022-07-29T02:06:31;1.85;;;1.75;;
11614;SDS011;5863;52.832;4.758;2022-07-29T02:09:03;2.88;;;1.92;;
11614;SDS011;5863;52.832;4.758;2022-07-29T02:11:33;3.17;;;2.00;;
11614;SDS011;5863;52.832;4.758;2022-07-29T02:14:00;2.38;;;2.00;;
11614;SDS011;5863;52.832;4.758;2022-07-29T02:16:29;2.95;;;1.92;;
11614;SDS011;5863;52.832;4.758;2022-07-29T02:19:00;2.85;;;2.15;;
11614;SDS011;5863;52.832;4.758;2022-07-29T02:21:29;4.70;;;2.20;;
11614;SDS011;5863;52.832;4.758;2022-07-29T02:23:59;3.00;;;2.20;;
11614;SDS011;5863;52.832;4.758;2022-07-29T02:26:27;2.97;;;1.98;;
11614;SDS011;5863;52.832;4.758;2022-07-29T02:28:55;4.65;;;2.20;;
11614;SDS011;5863;52.832;4.758;2022-07-29T02:31:25;3.92;;;2.40;;
11614;SDS011;5863;52.832;4.758;2022-07-29T02:33:57;3.78;;;2.10;;
11614;SDS011;5863;52.832;4.758;2022-07-29T02:36:25;3.05;;;2.15;;
11614;SDS011;5863;52.832;4.758;2022-07-29T02:38:53;3.35;;;2.00;;
11614;SDS011;5863;52.832;4.758;2022-07-29T02:41:26;5.07;;;2.20;;
11614;SDS011;5863;52.832;4.758;2022-07-29T02:43:54;3.30;;;1.98;;
11614;SDS011;5863;52.832;4.758;2022-07-29T02:46:26;1.85;;;1.70;;
11614;SDS011;5863;52.832;4.758;2022-07-29T02:48:59;5.03;;;1.83;;
11614;SDS011;5863;52.832;4.758;2022-07-29T02:51:34;3.38;;;1.83;;
11614;SDS011;5863;52.832;4.758;2022-07-29T02:54:07;5.05;;;2.30;;
11614;SDS011;5863;52.832;4.758;2022-07-29T02:56:36;6.43;;;2.10;;
11614;SDS011;5863;52.832;4.758;2022-07-29T02:59:06;2.03;;;1.65;;
11614;SDS011;5863;52.832;4.758;2022-07-29T03:01:35;2.72;;;2.00;;
11614;SDS011;5863;52.832;4.758;2022-07-29T03:04:09;2.10;;;1.90;;
11614;SDS011;5863;52.832;4.758;2022-07-29T03:06:38;2.97;;;1.77;;
11614;SDS011;5863;52.832;4.758;2022-07-29T03:09:07;3.92;;;2.20;;
11614;SDS011;5863;52.832;4.758;2022-07-29T03:11:36;3.15;;;2.10;;
11614;SDS011;5863;52.832;4.758;2022-07-29T03:14:04;5.00;;;1.75;;
11614;SDS011;5863;52.832;4.758;2022-07-29T03:16:31;2.55;;;1.70;;
11614;SDS011;5863;52.832;4.758;2022-07-29T03:19:01;1.95;;;1.70;;
11614;SDS011;5863;52.832;4.758;2022-07-29T03:21:30;1.65;;;1.50;;
11614;SDS011;5863;52.832;4.758;2022-07-29T03:23:57;3.58;;;1.75;;
11614;SDS011;5863;52.832;4.758;2022-07-29T03:26:24;1.85;;;1.50;;
11614;SDS011;5863;52.832;4.758;2022-07-29T03:28:51;2.65;;;1.75;;
11614;SDS011;5863;52.832;4.758;2022-07-29T03:31:17;3.65;;;1.55;;
11614;SDS011;5863;52.832;4.758;2022-07-29T03:33:44;3.30;;;1.60;;
11614;SDS011;5863;52.832;4.758;2022-07-29T03:36:11;3.33;;;1.35;;
11614;SDS011;5863;52.832;4.758;2022-07-29T03:38:39;4.57;;;1.80;;
11614;SDS011;5863;52.832;4.758;2022-07-29T03:41:10;4.28;;;1.65;;
11614;SDS011;5863;52.832;4.758;2022-07-29T03:43:39;2.85;;;1.60;;
11614;SDS011;5863;52.832;4.758;2022-07-29T03:46:07;3.78;;;1.95;;
11614;SDS011;5863;52.832;4.758;2022-07-29T03:48:36;3.00;;;1.70;;
11614;SDS011;5863;52.832;4.758;2022-07-29T03:51:08;4.50;;;1.80;;
11614;SDS011;5863;52.832;4.758;2022-07-29T03:53:35;4.25;;;1.83;;
11614;SDS011;5863;52.832;4.758;2022-07-29T03:56:03;3.05;;;1.83;;
11614;SDS011;5863;52.832;4.758;2022-07-29T03:58:32;6.00;;;1.73;;
11614;SDS011;5863;52.832;4.758;2022-07-29T04:00:59;3.03;;;2.20;;
11614;SDS011;5863;52.832;4.758;2022-07-29T04:03:26;3.53;;;1.63;;
11614;SDS011;5863;52.832;4.758;2022-07-29T04:06:00;4.13;;;2.10;;
11614;SDS011;5863;52.832;4.758;2022-07-29T04:08:28;2.83;;;1.90;;
11614;SDS011;5863;52.832;4.758;2022-07-29T04:10:55;2.58;;;1.85;;
11614;SDS011;5863;52.832;4.758;2022-07-29T04:13:23;2.78;;;1.80;;
11614;SDS011;5863;52.832;4.758;2022-07-29T04:15:50;4.47;;;2.22;;
11614;SDS011;5863;52.832;4.758;2022-07-29T04:18:16;1.95;;;1.70;;
11614;SDS011;5863;52.832;4.758;2022-07-29T04:20:43;4.97;;;2.00;;
11614;SDS011;5863;52.832;4.758;2022-07-29T04:23:10;5.72;;;1.92;;
11614;SDS011;5863;52.832;4.758;2022-07-29T04:25:37;2.95;;;1.67;;
11614;SDS011;5863;52.832;4.758;2022-07-29T04:28:04;2.42;;;1.80;;
11614;SDS011;5863;52.832;4.758;2022-07-29T04:30:33;3.20;;;2.00;;
11614;SDS011;5863;52.832;4.758;2022-07-29T04:33:01;2.75;;;1.67;;
11614;SDS011;5863;52.832;4.758;2022-07-29T04:35:29;4.47;;;1.75;;
11614;SDS011;5863;52.832;4.758;2022-07-29T04:37:57;4.45;;;1.70;;
11614;SDS011;5863;52.832;4.758;2022-07-29T04:40:23;3.58;;;2.00;;
11614;SDS011;5863;52.832;4.758;2022-07-29T04:42:50;4.55;;;1.70;;
11614;SDS011;5863;52.832;4.758;2022-07-29T04:45:17;3.63;;;1.45;;
11614;SDS011;5863;52.832;4.758;2022-07-29T04:47:45;2.47;;;1.80;;
11614;SDS011;5863;52.832;4.758;2022-07-29T04:50:12;1.88;;;1.70;;
11614;SDS011;5863;52.832;4.758;2022-07-29T04:52:39;2.15;;;1.70;;
11614;SDS011;5863;52.832;4.758;2022-07-29T04:55:06;3.78;;;1.63;;
11614;SDS011;5863;52.832;4.758;2022-07-29T04:57:33;5.75;;;2.10;;
11614;SDS011;5863;52.832;4.758;2022-07-29T05:00:00;3.88;;;1.88;;
11614;SDS011;5863;52.832;4.758;2022-07-29T05:02:28;4.38;;;1.80;;
11614;SDS011;5863;52.832;4.758;2022-07-29T05:04:56;8.32;;;1.67;;
11614;SDS011;5863;52.832;4.758;2022-07-29T05:07:23;1.77;;;1.55;;
11614;SDS011;5863;52.832;4.758;2022-07-29T05:09:49;4.30;;;1.60;;
11614;SDS011;5863;52.832;4.758;2022-07-29T05:12:16;3.63;;;1.75;;
11614;SDS011;5863;52.832;4.758;2022-07-29T05:14:43;3.10;;;1.55;;
11614;SDS011;5863;52.832;4.758;2022-07-29T05:17:09;2.25;;;1.48;;
11614;SDS011;5863;52.832;4.758;2022-07-29T05:19:36;1.90;;;1.70;;
11614;SDS011;5863;52.832;4.758;2022-07-29T05:22:06;4.18;;;1.80;;
11614;SDS011;5863;52.832;4.758;2022-07-29T05:24:33;2.33;;;1.50;;
11614;SDS011;5863;52.832;4.758;2022-07-29T05:27:00;1.80;;;1.40;;
11614;SDS011;5863;52.832;4.758;2022-07-29T05:29:26;3.65;;;1.77;;
11614;SDS011;5863;52.832;4.758;2022-07-29T05:31:53;4.15;;;1.77;;
11614;SDS011;5863;52.832;4.758;2022-07-29T05:34:22;3.72;;;1.67;;
11614;SDS011;5863;52.832;4.758;2022-07-29T05:36:49;2.50;;;1.60;;
11614;SDS011;5863;52.832;4.758;2022-07-29T05:39:18;1.35;;;1.25;;
11614;SDS011;5863;52.832;4.758;2022-07-29T05:41:44;3.85;;;1.60;;
11614;SDS011;5863;52.832;4.758;2022-07-29T05:44:11;5.32;;;1.77;;
11614;SDS011;5863;52.832;4.758;2022-07-29T05:46:38;3.13;;;1.40;;
11614;SDS011;5863;52.832;4.758;2022-07-29T05:49:05;8.10;;;1.60;;
11614;SDS011;5863;52.832;4.758;2022-07-29T05:51:32;1.52;;;1.15;;
11614;SDS011;5863;52.832;4.758;2022-07-29T05:53:59;3.78;;;1.40;;
11614;SDS011;5863;52.832;4.758;2022-07-29T05:56:28;3.17;;;1.48;;
11614;SDS011;5863;52.832;4.758;2022-07-29T05:58:54;4.40;;;1.60;;
11614;SDS011;5863;52.832;4.758;2022-07-29T06:01:21;3.10;;;1.50;;
11614;SDS011;5863;52.832;4.758;2022-07-29T06:03:48;4.13;;;1.55;;
11614;SDS011;5863;52.832;4.758;2022-07-29T06:06:15;2.65;;;1.75;;
11614;SDS011;5863;52.832;4.758;2022-07-29T06:08:43;2.95;;;1.08;;
11614;SDS011;5863;52.832;4.758;2022-07-29T06:11:09;2.67;;;1.40;;
11614;SDS011;5863;52.832;4.758;2022-07-29T06:13:37;1.85;;;1.30;;
11614;SDS011;5863;52.832;4.758;2022-07-29T06:16:04;4.22;;;1.45;;
11614;SDS011;5863;52.832;4.758;2022-07-29T06:18:31;6.80;;;1.70;;
11614;SDS011;5863;52.832;4.758;2022-07-29T06:20:58;2.75;;;1.42;;
11614;SDS011;5863;52.832;4.758;2022-07-29T06:23:24;2.70;;;1.42;;
11614;SDS011;5863;52.832;4.758;2022-07-29T06:25:51;3.40;;;1.40;;
11614;SDS011;5863;52.832;4.758;2022-07-29T06:28:19;2.38;;;1.40;;
11614;SDS011;5863;52.832;4.758;2022-07-29T06:30:50;3.63;;;1.50;;
11614;SDS011;5863;52.832;4.758;2022-07-29T06:33:17;6.13;;;1.67;;
11614;SDS011;5863;52.832;4.758;2022-07-29T06:35:44;2.28;;;1.35;;
11614;SDS011;5863;52.832;4.758;2022-07-29T06:38:13;3.65;;;1.42;;
11614;SDS011;5863;52.832;4.758;2022-07-29T06:40:42;2.40;;;1.40;;
11614;SDS011;5863;52.832;4.758;2022-07-29T06:43:27;5.18;;;1.40;;
11614;SDS011;5863;52.832;4.758;2022-07-29T06:45:58;2.15;;;1.25;;
11614;SDS011;5863;52.832;4.758;2022-07-29T06:48:26;4.78;;;1.40;;
11614;SDS011;5863;52.832;4.758;2022-07-29T06:50:54;5.93;;;1.42;;
11614;SDS011;5863;52.832;4.758;2022-07-29T06:53:21;2.13;;;1.20;;
11614;SDS011;5863;52.832;4.758;2022-07-29T06:55:48;2.35;;;1.40;;
11614;SDS011;5863;52.832;4.758;2022-07-29T06:58:15;3.55;;;1.40;;
11614;SDS011;5863;52.832;4.758;2022-07-29T07:00:45;2.55;;;1.35;;
11614;SDS011;5863;52.832;4.758;2022-07-29T07:03:13;5.97;;;1.30;;
11614;SDS011;5863;52.832;4.758;2022-07-29T07:05:40;2.13;;;1.23;;
11614;SDS011;5863;52.832;4.758;2022-07-29T07:08:07;3.28;;;1.30;;
11614;SDS011;5863;52.832;4.758;2022-07-29T07:10:34;2.78;;;1.40;;
11614;SDS011;5863;52.832;4.758;2022-07-29T07:13:01;2.42;;;1.20;;
11614;SDS011;5863;52.832;4.758;2022-07-29T07:15:28;3.47;;;1.52;;
11614;SDS011;5863;52.832;4.758;2022-07-29T07:17:55;2.63;;;1.35;;
11614;SDS011;5863;52.832;4.758;2022-07-29T07:20:23;1.23;;;1.10;;
11614;SDS011;5863;52.832;4.758;2022-07-29T07:22:50;3.05;;;1.40;;
11614;SDS011;5863;52.832;4.758;2022-07-29T07:25:17;3.05;;;1.48;;
11614;SDS011;5863;52.832;4.758;2022-07-29T07:27:44;1.55;;;1.10;;
11614;SDS011;5863;52.832;4.758;2022-07-29T07:30:14;2.10;;;1.55;;
11614;SDS011;5863;52.832;4.758;2022-07-29T07:32:41;4.25;;;1.40;;
11614;SDS011;5863;52.832;4.758;2022-07-29T07:35:08;3.00;;;1.27;;
11614;SDS011;5863;52.832;4.758;2022-07-29T07:37:37;2.92;;;1.58;;
11614;SDS011;5863;52.832;4.758;2022-07-29T07:40:05;3.38;;;1.30;;
11614;SDS011;5863;52.832;4.758;2022-07-29T07:42:34;4.07;;;1.40;;
11614;SDS011;5863;52.832;4.758;2022-07-29T07:45:00;7.03;;;1.60;;
11614;SDS011;5863;52.832;4.758;2022-07-29T07:47:27;1.67;;;1.13;;
11614;SDS011;5863;52.832;4.758;2022-07-29T07:49:54;3.25;;;1.23;;
11614;SDS011;5863;52.832;4.758;2022-07-29T07:52:21;1.50;;;1.40;;
11614;SDS011;5863;52.832;4.758;2022-07-29T07:54:49;2.70;;;1.40;;
11614;SDS011;5863;52.832;4.758;2022-07-29T07:57:16;4.18;;;1.42;;
11614;SDS011;5863;52.832;4.758;2022-07-29T07:59:43;1.83;;;1.40;;
11614;SDS011;5863;52.832;4.758;2022-07-29T08:02:10;3.03;;;1.40;;
11614;SDS011;5863;52.832;4.758;2022-07-29T08:04:37;3.53;;;1.30;;
11614;SDS011;5863;52.832;4.758;2022-07-29T08:07:05;2.33;;;1.33;;
11614;SDS011;5863;52.832;4.758;2022-07-29T08:09:32;2.65;;;1.23;;
11614;SDS011;5863;52.832;4.758;2022-07-29T08:12:01;4.35;;;1.40;;
11614;SDS011;5863;52.832;4.758;2022-07-29T08:14:29;4.57;;;1.60;;
11614;SDS011;5863;52.832;4.758;2022-07-29T08:16:56;5.40;;;1.65;;
11614;SDS011;5863;52.832;4.758;2022-07-29T08:19:23;1.83;;;1.50;;
11614;SDS011;5863;52.832;4.758;2022-07-29T08:21:49;4.90;;;1.50;;
11614;SDS011;5863;52.832;4.758;2022-07-29T08:24:22;5.65;;;1.60;;
11614;SDS011;5863;52.832;4.758;2022-07-29T08:27:10;3.05;;;1.38;;
11614;SDS011;5863;52.832;4.758;2022-07-29T08:29:40;4.28;;;1.40;;
11614;SDS011;5863;52.832;4.758;2022-07-29T08:32:09;2.05;;;1.40;;
11614;SDS011;5863;52.832;4.758;2022-07-29T08:34:36;2.65;;;1.40;;
11614;SDS011;5863;52.832;4.758;2022-07-29T08:37:07;2.78;;;1.50;;
11614;SDS011;5863;52.832;4.758;2022-07-29T08:39:40;3.20;;;1.42;;
11614;SDS011;5863;52.832;4.758;2022-07-29T08:42:10;2.25;;;1.35;;
11614;SDS011;5863;52.832;4.758;2022-07-29T08:44:36;3.58;;;1.48;;
11614;SDS011;5863;52.832;4.758;2022-07-29T08:47:04;6.50;;;1.55;;
11614;SDS011;5863;52.832;4.758;2022-07-29T08:49:32;3.55;;;1.60;;
11614;SDS011;5863;52.832;4.758;2022-07-29T08:52:11;3.45;;;1.20;;
11614;SDS011;5863;52.832;4.758;2022-07-29T08:54:38;4.57;;;2.00;;
11614;SDS011;5863;52.832;4.758;2022-07-29T08:57:09;3.17;;;1.65;;
11614;SDS011;5863;52.832;4.758;2022-07-29T08:59:38;7.88;;;1.70;;
11614;SDS011;5863;52.832;4.758;2022-07-29T09:02:09;2.90;;;1.60;;
11614;SDS011;5863;52.832;4.758;2022-07-29T09:04:41;3.60;;;1.58;;
11614;SDS011;5863;52.832;4.758;2022-07-29T09:07:08;4.00;;;1.90;;
11614;SDS011;5863;52.832;4.758;2022-07-29T09:09:40;3.17;;;1.70;;
11614;SDS011;5863;52.832;4.758;2022-07-29T09:12:07;2.72;;;1.70;;
11614;SDS011;5863;52.832;4.758;2022-07-29T09:14:36;3.25;;;1.65;;
11614;SDS011;5863;52.832;4.758;2022-07-29T09:17:03;2.47;;;1.48;;
11614;SDS011;5863;52.832;4.758;2022-07-29T09:19:30;5.07;;;1.83;;
11614;SDS011;5863;52.832;4.758;2022-07-29T09:22:00;6.03;;;2.25;;
11614;SDS011;5863;52.832;4.758;2022-07-29T09:24:39;5.47;;;2.10;;
11614;SDS011;5863;52.832;4.758;2022-07-29T09:27:11;4.13;;;2.00;;
11614;SDS011;5863;52.832;4.758;2022-07-29T09:29:45;3.03;;;1.83;;
11614;SDS011;5863;52.832;4.758;2022-07-29T09:32:12;2.78;;;1.90;;
11614;SDS011;5863;52.832;4.758;2022-07-29T09:34:39;3.20;;;1.63;;
11614;SDS011;5863;52.832;4.758;2022-07-29T09:37:06;2.40;;;1.88;;
11614;SDS011;5863;52.832;4.758;2022-07-29T09:39:33;5.60;;;2.15;;
11614;SDS011;5863;52.832;4.758;2022-07-29T09:42:05;5.50;;;2.03;;
11614;SDS011;5863;52.832;4.758;2022-07-29T09:44:43;4.95;;;1.95;;
11614;SDS011;5863;52.832;4.758;2022-07-29T09:47:11;3.92;;;1.90;;
11614;SDS011;5863;52.832;4.758;2022-07-29T09:49:50;2.92;;;1.73;;
11614;SDS011;5863;52.832;4.758;2022-07-29T09:52:18;4.70;;;2.20;;
11614;SDS011;5863;52.832;4.758;2022-07-29T09:54:45;7.13;;;2.40;;
11614;SDS011;5863;52.832;4.758;2022-07-29T09:57:22;5.25;;;2.22;;
11614;SDS011;5863;52.832;4.758;2022-07-29T09:59:58;4.32;;;1.98;;
11614;SDS011;5863;52.832;4.758;2022-07-29T10:02:30;11.63;;;2.10;;
11614;SDS011;5863;52.832;4.758;2022-07-29T10:04:59;7.25;;;2.15;;
11614;SDS011;5863;52.832;4.758;2022-07-29T10:07:27;3.40;;;2.25;;
11614;SDS011;5863;52.832;4.758;2022-07-29T10:10:09;5.82;;;2.00;;
11614;SDS011;5863;52.832;4.758;2022-07-29T10:12:47;5.07;;;2.30;;
11614;SDS011;5863;52.832;4.758;2022-07-29T10:15:15;4.65;;;1.60;;
11614;SDS011;5863;52.832;4.758;2022-07-29T10:17:43;5.10;;;1.95;;
11614;SDS011;5863;52.832;4.758;2022-07-29T10:20:10;4.95;;;1.88;;
11614;SDS011;5863;52.832;4.758;2022-07-29T10:22:37;3.80;;;1.85;;
11614;SDS011;5863;52.832;4.758;2022-07-29T10:25:05;4.10;;;1.73;;
11614;SDS011;5863;52.832;4.758;2022-07-29T10:27:34;5.70;;;2.10;;
11614;SDS011;5863;52.832;4.758;2022-07-29T10:30:02;5.88;;;2.20;;
11614;SDS011;5863;52.832;4.758;2022-07-29T10:35:37;4.28;;;2.00;;
11614;SDS011;5863;52.832;4.758;2022-07-29T10:38:16;6.22;;;2.15;;
11614;SDS011;5863;52.832;4.758;2022-07-29T10:40:54;5.40;;;1.70;;
11614;SDS011;5863;52.832;4.758;2022-07-29T10:43:48;3.90;;;1.75;;
11614;SDS011;5863;52.832;4.758;2022-07-29T10:46:17;3.67;;;1.60;;
11614;SDS011;5863;52.832;4.758;2022-07-29T10:54:38;6.25;;;1.90;;
11614;SDS011;5863;52.832;4.758;2022-07-29T10:57:11;5.43;;;2.03;;
11614;SDS011;5863;52.832;4.758;2022-07-29T10:59:39;7.15;;;2.08;;
11614;SDS011;5863;52.832;4.758;2022-07-29T11:05:09;6.15;;;1.73;;
11614;SDS011;5863;52.832;4.758;2022-07-29T11:07:37;3.85;;;1.75;;
11614;SDS011;5863;52.832;4.758;2022-07-29T11:10:21;4.00;;;1.85;;
11614;SDS011;5863;52.832;4.758;2022-07-29T11:12:51;3.63;;;1.85;;
11614;SDS011;5863;52.832;4.758;2022-07-29T11:15:19;5.93;;;2.00;;
11614;SDS011;5863;52.832;4.758;2022-07-29T11:18:05;5.40;;;2.03;;
11614;SDS011;5863;52.832;4.758;2022-07-29T11:20:35;8.85;;;2.20;;
11614;SDS011;5863;52.832;4.758;2022-07-29T11:23:18;8.15;;;1.90;;
11614;SDS011;5863;52.832;4.758;2022-07-29T11:28:50;5.78;;;2.00;;
11614;SDS011;5863;52.832;4.758;2022-07-29T11:31:30;6.05;;;2.08;;
11614;SDS011;5863;52.832;4.758;2022-07-29T11:34:19;7.50;;;2.10;;
11614;SDS011;5863;52.832;4.758;2022-07-29T11:42:44;27.65;;;4.57;;
11614;SDS011;5863;52.832;4.758;2022-07-29T11:45:13;32.72;;;5.68;;
11614;SDS011;5863;52.832;4.758;2022-07-29T11:47:48;40.70;;;7.55;;
11614;SDS011;5863;52.832;4.758;2022-07-29T11:50:26;17.33;;;4.25;;
11614;SDS011;5863;52.832;4.758;2022-07-29T11:52:59;12.35;;;2.72;;
11614;SDS011;5863;52.832;4.758;2022-07-29T11:55:27;12.02;;;2.85;;
11614;SDS011;5863;52.832;4.758;2022-07-29T11:57:56;5.65;;;2.13;;
11614;SDS011;5863;52.832;4.758;2022-07-29T12:00:28;5.20;;;2.05;;
11614;SDS011;5863;52.832;4.758;2022-07-29T12:02:57;6.13;;;2.30;;
11614;SDS011;5863;52.832;4.758;2022-07-29T12:05:33;5.85;;;2.35;;
11614;SDS011;5863;52.832;4.758;2022-07-29T12:08:10;5.80;;;2.25;;
11614;SDS011;5863;52.832;4.758;2022-07-29T12:10:38;7.65;;;2.50;;
11614;SDS011;5863;52.832;4.758;2022-07-29T12:13:06;4.95;;;2.20;;
11614;SDS011;5863;52.832;4.758;2022-07-29T12:15:33;5.05;;;1.95;;
11614;SDS011;5863;52.832;4.758;2022-07-29T12:20:45;4.28;;;2.35;;
11614;SDS011;5863;52.832;4.758;2022-07-29T12:23:14;6.47;;;2.03;;
11614;SDS011;5863;52.832;4.758;2022-07-29T12:25:42;5.13;;;2.33;;
11614;SDS011;5863;52.832;4.758;2022-07-29T12:28:11;3.58;;;1.88;;
11614;SDS011;5863;52.832;4.758;2022-07-29T12:30:40;7.00;;;2.30;;
11614;SDS011;5863;52.832;4.758;2022-07-29T12:33:10;5.45;;;2.10;;
11614;SDS011;5863;52.832;4.758;2022-07-29T12:35:45;7.00;;;2.10;;
11614;SDS011;5863;52.832;4.758;2022-07-29T12:38:14;6.00;;;2.10;;
11614;SDS011;5863;52.832;4.758;2022-07-29T12:40:43;8.23;;;2.60;;
11614;SDS011;5863;52.832;4.758;2022-07-29T12:43:11;9.60;;;2.38;;
11614;SDS011;5863;52.832;4.758;2022-07-29T12:45:41;8.20;;;2.42;;
11614;SDS011;5863;52.832;4.758;2022-07-29T12:48:10;6.82;;;2.20;;
11614;SDS011;5863;52.832;4.758;2022-07-29T12:50:51;8.40;;;2.40;;
11614;SDS011;5863;52.832;4.758;2022-07-29T12:53:21;6.85;;;2.33;;
11614;SDS011;5863;52.832;4.758;2022-07-29T12:55:48;4.35;;;1.98;;
11614;SDS011;5863;52.832;4.758;2022-07-29T12:58:28;4.57;;;2.13;;
11614;SDS011;5863;52.832;4.758;2022-07-29T13:01:04;7.43;;;2.45;;
11614;SDS011;5863;52.832;4.758;2022-07-29T13:03:46;6.60;;;2.15;;
11614;SDS011;5863;52.832;4.758;2022-07-29T13:06:27;8.00;;;2.20;;
11614;SDS011;5863;52.832;4.758;2022-07-29T13:09:02;7.57;;;2.53;;
11614;SDS011;5863;52.832;4.758;2022-07-29T13:11:33;9.60;;;2.63;;
11614;SDS011;5863;52.832;4.758;2022-07-29T13:14:08;6.22;;;2.63;;
11614;SDS011;5863;52.832;4.758;2022-07-29T13:16:38;8.18;;;2.92;;
11614;SDS011;5863;52.832;4.758;2022-07-29T13:19:32;6.68;;;2.45;;
11614;SDS011;5863;52.832;4.758;2022-07-29T13:22:00;4.25;;;2.30;;
11614;SDS011;5863;52.832;4.758;2022-07-29T13:24:29;5.10;;;2.38;;
11614;SDS011;5863;52.832;4.758;2022-07-29T13:26:56;8.65;;;2.45;;
11614;SDS011;5863;52.832;4.758;2022-07-29T13:29:23;7.50;;;2.53;;
11614;SDS011;5863;52.832;4.758;2022-07-29T13:31:51;6.65;;;2.83;;
11614;SDS011;5863;52.832;4.758;2022-07-29T13:34:19;6.03;;;3.03;;
11614;SDS011;5863;52.832;4.758;2022-07-29T13:36:47;7.55;;;2.58;;
11614;SDS011;5863;52.832;4.758;2022-07-29T13:39:14;6.43;;;2.90;;
11614;SDS011;5863;52.832;4.758;2022-07-29T13:41:42;10.07;;;3.00;;
11614;SDS011;5863;52.832;4.758;2022-07-29T13:44:09;8.75;;;3.17;;
11614;SDS011;5863;52.832;4.758;2022-07-29T13:46:36;5.13;;;2.67;;
11614;SDS011;5863;52.832;4.758;2022-07-29T13:49:04;7.45;;;2.53;;
11614;SDS011;5863;52.832;4.758;2022-07-29T13:51:30;7.35;;;3.03;;
11614;SDS011;5863;52.832;4.758;2022-07-29T13:53:57;10.60;;;3.08;;
11614;SDS011;5863;52.832;4.758;2022-07-29T13:56:24;9.07;;;2.70;;
11614;SDS011;5863;52.832;4.758;2022-07-29T13:58:52;6.35;;;2.40;;
11614;SDS011;5863;52.832;4.758;2022-07-29T14:01:19;9.98;;;2.53;;
11614;SDS011;5863;52.832;4.758;2022-07-29T14:03:46;5.95;;;2.70;;
11614;SDS011;5863;52.832;4.758;2022-07-29T14:06:13;5.68;;;2.60;;
11614;SDS011;5863;52.832;4.758;2022-07-29T14:08:40;6.20;;;2.75;;
11614;SDS011;5863;52.832;4.758;2022-07-29T14:11:07;7.97;;;2.80;;
11614;SDS011;5863;52.832;4.758;2022-07-29T14:13:33;6.88;;;2.83;;
11614;SDS011;5863;52.832;4.758;2022-07-29T14:16:01;8.40;;;2.88;;
11614;SDS011;5863;52.832;4.758;2022-07-29T14:18:28;6.05;;;2.40;;
11614;SDS011;5863;52.832;4.758;2022-07-29T14:20:58;5.28;;;2.42;;
11614;SDS011;5863;52.832;4.758;2022-07-29T14:23:25;7.72;;;2.55;;
11614;SDS011;5863;52.832;4.758;2022-07-29T14:25:52;7.05;;;2.80;;
11614;SDS011;5863;52.832;4.758;2022-07-29T14:28:18;5.95;;;2.95;;
11614;SDS011;5863;52.832;4.758;2022-07-29T14:30:45;6.68;;;2.53;;
11614;SDS011;5863;52.832;4.758;2022-07-29T14:33:13;6.63;;;2.40;;
11614;SDS011;5863;52.832;4.758;2022-07-29T14:35:40;5.80;;;2.60;;
11614;SDS011;5863;52.832;4.758;2022-07-29T14:38:07;4.82;;;2.75;;
11614;SDS011;5863;52.832;4.758;2022-07-29T14:40:34;6.63;;;2.40;;
11614;SDS011;5863;52.832;4.758;2022-07-29T14:43:01;6.40;;;2.75;;
11614;SDS011;5863;52.832;4.758;2022-07-29T14:45:28;7.00;;;2.75;;
11614;SDS011;5863;52.832;4.758;2022-07-29T14:47:54;6.60;;;2.47;;
11614;SDS011;5863;52.832;4.758;2022-07-29T14:50:23;8.20;;;2.63;;
11614;SDS011;5863;52.832;4.758;2022-07-29T14:52:51;7.32;;;2.70;;
11614;SDS011;5863;52.832;4.758;2022-07-29T14:55:17;11.35;;;3.13;;
11614;SDS011;5863;52.832;4.758;2022-07-29T14:57:44;8.02;;;2.92;;
11614;SDS011;5863;52.832;4.758;2022-07-29T15:00:11;5.53;;;2.38;;
11614;SDS011;5863;52.832;4.758;2022-07-29T15:02:39;7.60;;;2.22;;
11614;SDS011;5863;52.832;4.758;2022-07-29T15:05:06;8.40;;;2.58;;
11614;SDS011;5863;52.832;4.758;2022-07-29T15:07:34;6.85;;;2.33;;
11614;SDS011;5863;52.832;4.758;2022-07-29T15:10:02;5.25;;;2.42;;
11614;SDS011;5863;52.832;4.758;2022-07-29T15:12:30;10.02;;;2.83;;
11614;SDS011;5863;52.832;4.758;2022-07-29T15:14:56;5.45;;;2.42;;
11614;SDS011;5863;52.832;4.758;2022-07-29T15:17:24;6.05;;;2.65;;
11614;SDS011;5863;52.832;4.758;2022-07-29T15:19:51;7.60;;;2.60;;
11614;SDS011;5863;52.832;4.758;2022-07-29T15:22:17;3.80;;;2.55;;
11614;SDS011;5863;52.832;4.758;2022-07-29T15:24:45;5.25;;;2.10;;
11614;SDS011;5863;52.832;4.758;2022-07-29T15:27:12;9.80;;;2.70;;
11614;SDS011;5863;52.832;4.758;2022-07-29T15:29:40;6.28;;;2.60;;
11614;SDS011;5863;52.832;4.758;2022-07-29T15:32:08;9.23;;;2.85;;
11614;SDS011;5863;52.832;4.758;2022-07-29T15:34:35;5.60;;;2.33;;
11614;SDS011;5863;52.832;4.758;2022-07-29T15:37:05;4.35;;;2.40;;